Lexington, KY (40517)

6:43 PM EDT on September 26, 2016 (GMT -0400)
Wilson Downing Rd | | Change Station

Elev 935 ft 37.98 °N, 84.50 °W | Updated 11 seconds ago

Partly Cloudy
Partly Cloudy
65.5 °F
Feels Like 65.5 °F
N
0.0
Wind Variable Wind from North

Today
High -- | Low -- °F
--% Chance of Precip.
Yesterday
High -- | Low -- °F
Precip. -- in
Pressure 30.04 in
Visibility 10.0 miles
Clouds Few 10000 ft
Dew Point 57 °F
Humidity 75%
Rainfall in
Snow Depth Not available.
7:29 AM 7:27 PM
Waning Crescent, 16% visible
METAR KLEX 262154Z 30005KT 10SM FEW100 18/12 A3006 RMK AO2 SLP173 T01830122
Pressure 30.04 in
Visibility 10.0 miles
Clouds Few 10000 ft
Dew Point 57 °F
Humidity 75%
Rainfall in
Snow Depth Not available.
7:29 AM 7:27 PM
Waning Crescent, 16% visible
METAR KLEX 262154Z 30005KT 10SM FEW100 18/12 A3006 RMK AO2 SLP173 T01830122

10-Day Weather Forecast

Almanac

Astronomy

Sep. 26, 2016 Rise Set
Actual Time
Civil Twilight
Nautical Twilight
Astronomical Twilight
Moon
Length of Visible Light
Length of Day
Tomorrow will be .
, % of the Moon is Illuminated

Today's Extremes

State Highs State Lows

Community

WunderPhotos

Upload Photos

1,941,981 photos uploaded!

WunderBlog® & News

Nearby

Air Quality

  Air Quality AQ Index Pollutant
Not available.

Snow Depth

Station Depth Elevation

Earthquake Activity

City Distance Mag. Time & Date
Minimum magnitude displayed is 2.5.

Coastal Water Temperatures

Place Temperature

Stations

Nearby Weather Stations

Station Location Temp. Windchill Dew Point Humidity Wind Precip. Elev Updated Type
                   

Watches & Warnings

There are currently no watches in effect.